Weather observations for the past three days for
King Airport, St. Thomas
Imperial (Metric)
Date Time (ast) Wind (mph) Vis. (mi.) Weather Sky Cond. Temperature (ºF) Relative Humidity Wind Chill (°F) Heat Index (°F) Pressure Precipitation (in)
Air Dwpt 6 hour altimeter (in) sea level (mb) 1 hr 3 hr 6 hr
Max. Min.
02 17:53 SE 12 10.00 Fair CLR 84.2 39.2 20% 81 29.96 0.0
02 16:53 SE 14 G 23 10.00 A Few Clouds FEW030 84.2 39.2 20% 81 29.95 0.0
02 15:53 SE 15 10.00 Partly Cloudy SCT030 84.2 39.2 20% 81 29.95 0.0
02 14:53 SE 16 10.00 Partly Cloudy SCT030 84.2 39.2 20% 81 29.96 0.0
02 13:53 SE 16 10.00 Partly Cloudy SCT030 86 41 86 81 20% 83 29.98 1015.4
02 12:53 SE 15 G 23 10.00 Partly Cloudy SCT030 86 39.2 19% 83 30.01 0.0
02 11:53 SE 15 10.00 Partly Cloudy SCT030 SCT040 84.2 37.4 19% 81 30.02 0.0
02 10:53 E 14 G 24 10.00 Partly Cloudy SCT028 84.2 35.6 18% 81 30.03 0.0
02 09:53 SE 12 10.00 A Few Clouds FEW030 86 72 63% 92 30.03 1016.8
02 08:53 SE 15 10.00 Partly Cloudy FEW025 SCT032 84.2 71.6 66% 90 30.02 0.0
02 07:53 E 10 10.00 Fair CLR 84.2 71.6 66% 90 30 0.0
02 06:53 E 10 10.00 Fair CLR 81 72 74% 85 29.98 1015.2
02 05:53 E 7 10.00 Fair CLR 78.8 71.6 79% 82 29.96 0.0
02 04:53 E 5 10.00 Fair CLR 77 73 88% 78 29.95 1014.2
02 03:53 E 5 10.00 Fair CLR 78.8 71.6 79% 82 29.94 0.0
02 02:53 E 5 10.00 Fair CLR 78.8 71.6 79% 82 29.94 0.0
02 01:53 E 5 10.00 Fair CLR 78.8 71.6 79% 82 29.94 0.0
02 00:53 E 6 10.00 Fair CLR 79 72 79% 82 29.96 1014.6
01 23:53 E 6 10.00 Fair CLR 80.6 73.4 79% 85 29.98 0.0
01 21:53 E 7 10.00 Fair CLR 80.6 73.4 79% 85 29.97 0.0
01 20:53 E 5 10.00 Fair CLR 80.6 73.4 79% 85 29.95 0.0
01 19:53 E 6 10.00 Fair CLR 80.6 71.6 74% 85 29.94 0.0
01 18:53 E 9 10.00 Fair CLR 82.4 71.6 70% 87 29.93 0.0
01 16:53 SE 14 10.00 Partly Cloudy SCT030 84.2 73.4 70% 91 29.91 0.0
01 15:53 SE 14 10.00 Partly Cloudy SCT030 84.9 73.9 70% 92 29.91 1013.0
01 14:53 SE 15 10.00 Fair CLR 84.2 73.4 70% 91 29.91 0.0
01 13:53 SE 13 10.00 Partly Cloudy SCT037 SCT047 84.2 73.4 70% 91 29.93 0.0
01 12:53 SE 12 10.00 Partly Cloudy SCT030 SCT050 82.4 75.2 79% 89 29.96 0.0
01 11:53 SE 13 10.00 Partly Cloudy SCT050 84.2 75.2 74% 92 29.96 0.0
01 10:53 SE 10 10.00 Partly Cloudy SCT025 SCT080 86 73.4 66% 93 29.97 0.0
01 09:53 SE 9 10.00 Partly Cloudy SCT025 SCT055 84.2 75.2 74% 92 29.98 0.0
01 08:53 SE 12 10.00 Partly Cloudy SCT025 84.2 75.2 74% 92 29.95 0.0
01 07:53 SE 9 10.00 Mostly Cloudy FEW025 BKN090 84.2 75.2 74% 92 29.93 0.0
01 06:53 E 7 10.00 Mostly Cloudy BKN038 BKN048 81 73.9 79% 86 29.92 1013.1
01 05:53 Calm 10.00 Fair CLR 78.8 73.4 84% 82 29.9 0.0
01 04:53 E 5 10.00 Fair CLR 80.6 73.4 79% 85 29.89 0.0
01 03:53 E 5 10.00 Fair CLR 78.8 73.4 84% 82 29.87 0.0
01 02:53 E 3 10.00 Fair CLR 80.1 72 76% 84 29.89 1012.2
01 01:53 E 5 10.00 Fair CLR 80.1 72 82 80.1 76% 84 29.9 1012.7
01 00:53 E 7 10.00 Fair CLR 80.6 71.6 74% 85 29.92 0.0
30 23:53 NE 3 10.00 A Few Clouds FEW120 80.6 71.6 74% 85 29.94 0.0
30 21:53 E 6 10.00 Fair CLR 80.6 71.6 74% 85 29.94 0.0
30 20:53 NE 3 10.00 Fair CLR 80.6 73.4 79% 85 29.94 0.0
30 18:53 SE 7 10.00 Fair CLR 82.4 71.6 70% 87 29.89 0.0
30 17:53 SE 8 10.00 Fair CLR 82.4 73.4 74% 88 29.88 0.0
30 16:53 SE 9 10.00 Fair CLR 84.2 73.4 70% 91 29.86 0.0
30 15:53 SE 8 10.00 Fair CLR 84.2 73.4 70% 91 29.86 0.0
30 14:53 SE 10 10.00 Fair CLR 84.2 73.4 70% 91 29.86 0.0
30 13:53 E 12 10.00 Fair CLR 84.9 73.9 87.1 81 70% 92 29.87 1011.6
30 12:53 SE 14 10.00 Partly Cloudy SCT030 84.9 73.9 70% 92 29.9 1012.5
30 11:53 SE 13 10.00 Fair CLR 84.9 73 68% 92 29.91 1013.0
30 10:53 SE 10 10.00 Partly Cloudy SCT025 84.9 75 72% 93 29.93 1013.6
30 09:53 S 7 10.00 Partly Cloudy SCT021 SCT032 82.4 75.2 79% 89 29.93 0.0
30 08:53 SE 12 10.00 A Few Clouds FEW030 82.4 73.4 74% 88 29.93 0.0
30 07:53 SE 8 10.00 A Few Clouds FEW030 82.4 73.4 74% 88 29.91 0.0
30 05:53 Calm 10.00 A Few Clouds FEW044 78.8 73.4 84% 82 29.88 0.0
30 04:53 E 6 10.00 Fair CLR 78.8 73.4 84% 82 29.86 0.0
30 03:53 E 3 10.00 Fair CLR 78.1 73.9 87% 81 29.86 1011.1
30 01:53 E 5 10.00 Fair CLR 78.8 73.4 84% 82 29.89 0.0
30 00:53 E 6 10.00 Fair CLR 79 73 82% 82 29.9 1012.7
29 23:53 E 9 10.00 Fair CLR 80.6 73.4 79% 85 29.92 0.0
29 22:53 NE 3 10.00 Fair CLR 80.6 73.4 79% 85 29.95 0.0
29 21:53 E 5 10.00 Fair CLR 80.6 73.4 79% 85 29.94 0.0
29 20:53 E 6 10.00 Fair CLR 80.6 73.4 79% 85 29.93 0.0
29 19:53 NE 5 10.00 Fair CLR 80.6 73.4 79% 85 29.91 0.0
29 18:53 E 8 10.00 Fair CLR 82 73 74% 87 29.89 1012.4
Date Time (ast) Wind (mph) Vis. (mi.) Weather Sky Cond. Air Dwpt Max. Min. Relative Humidity Wind Chill (°F) Heat Index (°F) altimeter (in) sea level (mb) 1 hr 3 hr 6 hr
6 hour
Temperature (ºF) Pressure Precipitation (in)